Terminal Aerodrome Forecast
Issued by NWS

Home | Current Version | Previous Version | Text Only | Print | Product List | Glossary On
Versions: 1 2 3 4 5 6 7 8 9 10 11 12 13 14 15
000
FTPA31 PHFO 300537
TAFHJR
TAF
PHJR 300537Z 3006/0106 06004KT P6SM FEW050
     FM302000 12010G17KT P6SM FEW030 SCT050
     FM010400 06005KT P6SM FEW050=

USA.gov is the U.S. government's official web portal to all federal, state and local government web resources and services.